createdAt,value
2022-12-27T00:02:25.437Z,3.79
2022-12-27T00:04:54.256Z,3.82
2022-12-27T00:07:22.396Z,3.84
2022-12-27T00:09:50.488Z,3.83
2022-12-27T00:12:18.617Z,3.83
2022-12-27T00:14:48.104Z,3.81
2022-12-27T00:17:16.265Z,3.74
2022-12-27T00:19:44.273Z,3.82
2022-12-27T00:22:12.369Z,3.81
2022-12-27T00:24:40.793Z,3.88
2022-12-27T00:27:12.089Z,3.92
2022-12-27T00:29:40.196Z,3.88
2022-12-27T00:32:09.748Z,3.82
2022-12-27T00:34:37.917Z,3.57
2022-12-27T00:37:06.077Z,3.39
2022-12-27T00:39:34.172Z,3.23
2022-12-27T00:42:02.277Z,3.07
2022-12-27T00:44:30.492Z,3.03
2022-12-27T00:46:58.691Z,2.82
2022-12-27T00:49:28.244Z,2.78
2022-12-27T00:51:56.293Z,2.66
2022-12-27T00:54:24.537Z,2.56
2022-12-27T00:56:52.618Z,2.44
2022-12-27T00:59:20.811Z,2.39
2022-12-27T01:01:49.320Z,2.42
2022-12-27T01:04:17.564Z,2.26
2022-12-27T01:06:50.245Z,2.33
2022-12-27T01:09:18.502Z,2.21
2022-12-27T01:11:46.458Z,2.33
2022-12-27T01:14:15.486Z,2.23
2022-12-27T01:16:47.951Z,2.34
2022-12-27T01:19:16.609Z,2.35
2022-12-27T01:21:45.001Z,2.48
2022-12-27T01:24:14.599Z,2.45
2022-12-27T01:26:42.986Z,2.29
2022-12-27T01:29:13.393Z,2.03
2022-12-27T01:31:41.808Z,1.94
2022-12-27T01:34:10.396Z,2.05
2022-12-27T01:36:38.513Z,2.02
2022-12-27T01:39:08.457Z,2.11
2022-12-27T01:41:58.295Z,2.13
2022-12-27T01:45:07.343Z,2.35
2022-12-27T01:47:47.755Z,2.41
2022-12-27T01:50:23.012Z,2.44
2022-12-27T01:52:57.152Z,2.38
2022-12-27T01:55:30.661Z,2.48
2022-12-27T01:58:04.850Z,2.37
2022-12-27T02:00:33.318Z,2.41
2022-12-27T02:03:03.392Z,2.60
2022-12-27T02:05:32.012Z,2.55
2022-12-27T02:08:09.975Z,2.34
2022-12-27T02:10:38.792Z,2.50
2022-12-27T02:13:08.604Z,2.57
2022-12-27T02:15:37.050Z,2.78
2022-12-27T02:18:05.528Z,2.91
2022-12-27T02:20:59.990Z,2.93
2022-12-27T02:24:14.447Z,3.04
2022-12-27T02:27:03.784Z,2.90
2022-12-27T02:29:53.870Z,2.95
2022-12-27T02:32:29.965Z,2.74
2022-12-27T02:35:06.952Z,2.93
2022-12-27T02:37:40.375Z,2.78
2022-12-27T02:40:29.223Z,2.72
2022-12-27T02:43:15.327Z,2.63
2022-12-27T02:46:09.288Z,2.54
2022-12-27T02:48:54.950Z,2.50
2022-12-27T02:51:56.808Z,2.58
2022-12-27T02:54:43.251Z,2.57
2022-12-27T02:57:22.294Z,2.65
2022-12-27T03:00:30.498Z,2.45
2022-12-27T03:03:29.350Z,2.40
2022-12-27T03:06:41.919Z,2.15
2022-12-27T03:09:58.340Z,2.23
2022-12-27T03:12:53.164Z,2.17
2022-12-27T03:15:51.772Z,2.08
2022-12-27T03:18:31.415Z,2.01
2022-12-27T03:21:18.563Z,1.96
2022-12-27T03:24:06.750Z,2.05
2022-12-27T03:26:37.207Z,2.04
2022-12-27T03:29:25.029Z,2.00
2022-12-27T03:32:13.941Z,2.17
2022-12-27T03:34:51.487Z,2.33
2022-12-27T03:37:39.839Z,2.33
2022-12-27T03:40:16.134Z,2.48
2022-12-27T03:43:08.238Z,2.39
2022-12-27T03:46:05.835Z,2.44
2022-12-27T03:48:40.597Z,2.44
2022-12-27T03:51:10.596Z,2.54
2022-12-27T03:53:42.361Z,2.51
2022-12-27T03:56:11.287Z,2.54
2022-12-27T03:58:39.402Z,2.28
2022-12-27T04:01:07.658Z,2.21
2022-12-27T04:03:35.702Z,2.28
2022-12-27T04:06:03.897Z,2.47
2022-12-27T04:08:51.084Z,2.36
2022-12-27T04:11:36.192Z,2.23
2022-12-27T04:14:22.004Z,2.28
2022-12-27T04:17:07.563Z,2.21
2022-12-27T04:19:52.594Z,2.31
2022-12-27T04:22:37.757Z,2.21
2022-12-27T04:25:25.320Z,2.06
2022-12-27T04:28:10.549Z,2.00
2022-12-27T04:30:55.731Z,1.84
2022-12-27T04:33:41.157Z,1.81
2022-12-27T04:36:10.252Z,1.87
2022-12-27T04:38:38.303Z,1.86
2022-12-27T04:41:25.447Z,1.88
2022-12-27T04:44:10.712Z,1.93
2022-12-27T04:46:55.932Z,1.89
2022-12-27T04:49:43.378Z,1.78
2022-12-27T04:52:34.095Z,1.83
2022-12-27T04:55:11.110Z,1.77
2022-12-27T04:57:40.551Z,1.55
2022-12-27T05:00:27.317Z,1.53
2022-12-27T05:02:55.935Z,1.42
2022-12-27T05:05:25.454Z,1.41
2022-12-27T05:08:11.620Z,1.44
2022-12-27T05:10:57.246Z,1.41
2022-12-27T05:13:43.921Z,1.51
2022-12-27T05:16:12.014Z,1.60
2022-12-27T05:18:40.094Z,1.77
2022-12-27T05:21:08.717Z,1.80
2022-12-27T05:23:56.769Z,1.76
2022-12-27T05:26:28.819Z,1.88
2022-12-27T05:28:59.871Z,1.90
2022-12-27T05:31:30.266Z,1.95
2022-12-27T05:33:58.697Z,2.12
2022-12-27T05:36:27.217Z,2.31
2022-12-27T05:38:55.353Z,2.30
2022-12-27T05:41:23.644Z,2.31
2022-12-27T05:43:51.957Z,2.19
2022-12-27T05:46:23.254Z,2.12
2022-12-27T05:48:51.537Z,1.90
2022-12-27T05:51:21.962Z,1.63
2022-12-27T05:53:50.174Z,1.39
2022-12-27T05:56:20.351Z,1.30
2022-12-27T05:58:48.680Z,1.30
2022-12-27T06:01:18.657Z,1.20
2022-12-27T06:03:49.014Z,1.11
2022-12-27T06:06:16.952Z,1.06
2022-12-27T06:08:44.957Z,0.97
2022-12-27T06:11:15.360Z,0.91
2022-12-27T06:13:49.632Z,1.03
2022-12-27T06:16:17.702Z,0.87
2022-12-27T06:18:47.566Z,0.81
2022-12-27T06:21:17.894Z,0.83
2022-12-27T06:23:46.824Z,0.86
2022-12-27T06:26:16.357Z,0.97
2022-12-27T06:28:44.339Z,1.11
2022-12-27T06:31:12.664Z,1.08
2022-12-27T06:33:40.657Z,1.19
2022-12-27T06:36:12.502Z,1.38
2022-12-27T06:38:40.684Z,1.34
2022-12-27T06:41:11.524Z,1.46
2022-12-27T06:43:40.118Z,1.44
2022-12-27T06:46:16.727Z,1.49
2022-12-27T06:48:45.671Z,1.46
2022-12-27T06:51:17.276Z,1.55
2022-12-27T06:53:45.294Z,1.68
2022-12-27T06:56:16.668Z,1.90
2022-12-27T06:58:45.272Z,1.89
2022-12-27T07:01:15.580Z,1.98
2022-12-27T07:03:44.092Z,2.03
2022-12-27T07:06:13.040Z,2.26
2022-12-27T07:08:42.722Z,2.28
2022-12-27T07:11:12.561Z,2.17
2022-12-27T07:13:42.759Z,2.37
2022-12-27T07:16:12.311Z,2.58
2022-12-27T07:18:40.560Z,2.59
2022-12-27T07:21:10.473Z,2.71
2022-12-27T07:23:39.174Z,2.71
2022-12-27T07:26:11.269Z,2.85
2022-12-27T07:28:40.056Z,2.84
2022-12-27T07:31:09.437Z,2.88
2022-12-27T07:33:38.271Z,2.97
2022-12-27T07:36:08.781Z,2.92
2022-12-27T07:38:36.955Z,2.78
2022-12-27T07:41:05.852Z,2.72
2022-12-27T07:43:37.128Z,2.58
2022-12-27T07:46:06.283Z,2.67
2022-12-27T07:48:34.684Z,2.67
2022-12-27T07:51:02.924Z,2.70
2022-12-27T07:53:31.460Z,2.77
2022-12-27T07:55:59.879Z,2.72
2022-12-27T07:58:28.230Z,2.83
2022-12-27T08:00:58.041Z,2.96
2022-12-27T08:03:26.251Z,2.94
2022-12-27T08:05:54.340Z,3.00
2022-12-27T08:08:26.373Z,3.10
2022-12-27T08:10:54.520Z,3.13
2022-12-27T08:13:22.480Z,3.26
2022-12-27T08:15:54.036Z,3.24
2022-12-27T08:18:23.957Z,3.43
2022-12-27T08:20:52.529Z,3.52
2022-12-27T08:23:21.172Z,3.69
2022-12-27T08:25:49.499Z,3.70
2022-12-27T08:28:19.493Z,3.78
2022-12-27T08:30:48.815Z,3.94
2022-12-27T08:33:17.305Z,4.08
2022-12-27T08:35:55.010Z,4.31
2022-12-27T08:38:23.745Z,4.43
2022-12-27T08:40:52.069Z,4.46
2022-12-27T08:43:20.161Z,4.32
2022-12-27T08:45:48.636Z,4.38
2022-12-27T08:48:18.199Z,4.52
2022-12-27T08:50:47.839Z,4.75
2022-12-27T08:53:16.041Z,5.00
2022-12-27T08:55:44.102Z,5.21
2022-12-27T08:58:16.395Z,5.29
2022-12-27T09:00:45.019Z,5.38
2022-12-27T09:03:13.145Z,5.52
2022-12-27T09:05:42.162Z,6.16
2022-12-27T09:08:12.147Z,6.94
2022-12-27T09:10:40.528Z,7.66
2022-12-27T09:13:08.665Z,8.30
2022-12-27T09:15:38.374Z,8.97
2022-12-27T09:18:07.568Z,9.60
2022-12-27T09:20:36.008Z,9.80
2022-12-27T09:23:04.185Z,9.85
2022-12-27T09:25:33.653Z,10.22
2022-12-27T09:28:02.148Z,10.56
2022-12-27T09:30:30.279Z,10.73
2022-12-27T09:32:59.540Z,10.71
2022-12-27T09:35:27.620Z,10.87
2022-12-27T09:37:55.861Z,11.13
2022-12-27T09:40:24.006Z,11.44
2022-12-27T09:43:12.632Z,11.77
2022-12-27T09:45:48.340Z,11.99
2022-12-27T09:48:33.404Z,11.90
2022-12-27T09:51:07.687Z,11.91
2022-12-27T09:53:45.073Z,11.93
2022-12-27T09:56:15.727Z,12.32
2022-12-27T09:58:50.848Z,12.33
2022-12-27T10:01:23.548Z,12.41
2022-12-27T10:03:53.055Z,12.39
2022-12-27T10:06:45.444Z,12.41
2022-12-27T10:09:30.678Z,12.15
2022-12-27T10:12:05.809Z,12.52
2022-12-27T10:14:53.161Z,12.74
2022-12-27T10:17:34.145Z,12.93
2022-12-27T10:20:11.806Z,13.08
2022-12-27T10:22:47.196Z,13.06
2022-12-27T10:25:19.555Z,13.27
2022-12-27T10:27:48.734Z,13.35
2022-12-27T10:30:20.293Z,13.62
2022-12-27T10:32:49.088Z,13.54
2022-12-27T10:35:20.520Z,13.60
2022-12-27T10:37:50.156Z,13.83
2022-12-27T10:40:24.213Z,13.81
2022-12-27T10:43:04.792Z,13.94
2022-12-27T10:45:39.852Z,14.18
2022-12-27T10:48:21.271Z,14.22
2022-12-27T10:50:54.646Z,14.52
2022-12-27T10:53:38.202Z,14.06
2022-12-27T10:56:13.334Z,14.61
2022-12-27T10:58:44.059Z,15.08
2022-12-27T11:01:21.941Z,14.83
2022-12-27T11:03:50.295Z,14.52
2022-12-27T11:06:23.330Z,14.57
2022-12-27T11:08:52.467Z,14.74
2022-12-27T11:11:22.968Z,14.83
2022-12-27T11:13:52.779Z,15.32
2022-12-27T11:16:43.138Z,14.78
2022-12-27T11:19:25.814Z,14.63
2022-12-27T11:21:59.124Z,14.94
2022-12-27T11:24:28.634Z,15.20
2022-12-27T11:27:00.429Z,15.52
2022-12-27T11:29:33.218Z,15.76
2022-12-27T11:32:18.495Z,15.67
2022-12-27T11:34:49.122Z,15.52
2022-12-27T11:37:19.379Z,15.57
2022-12-27T11:39:49.384Z,15.46
2022-12-27T11:42:23.908Z,15.58
2022-12-27T11:45:01.040Z,16.11
2022-12-27T11:47:39.163Z,16.46
2022-12-27T11:50:31.382Z,16.40
2022-12-27T11:53:14.364Z,16.39
2022-12-27T11:56:04.251Z,16.74
2022-12-27T11:59:08.393Z,17.05
2022-12-27T12:01:55.101Z,16.19
2022-12-27T12:05:07.360Z,15.45
2022-12-27T12:08:02.118Z,14.73
2022-12-27T12:10:39.723Z,14.41
2022-12-27T12:13:29.005Z,14.13
2022-12-27T12:16:16.907Z,13.75
2022-12-27T12:19:23.291Z,13.70
2022-12-27T12:22:04.970Z,13.39
2022-12-27T12:25:07.632Z,13.16
2022-12-27T12:27:50.167Z,12.90
2022-12-27T12:30:42.642Z,12.96
2022-12-27T12:33:30.657Z,12.85
2022-12-27T12:36:24.756Z,12.89
2022-12-27T12:39:00.317Z,13.05
2022-12-27T12:42:00.677Z,12.92
2022-12-27T12:44:55.396Z,13.09
2022-12-27T12:47:45.018Z,13.11
2022-12-27T12:50:29.699Z,13.06
2022-12-27T12:53:24.285Z,13.20
2022-12-27T12:56:03.487Z,13.11
2022-12-27T12:58:50.180Z,13.17
2022-12-27T13:01:40.206Z,12.99
2022-12-27T13:04:24.805Z,13.06
2022-12-27T13:07:14.961Z,12.93
2022-12-27T13:10:03.386Z,12.85
2022-12-27T13:12:41.440Z,12.93
2022-12-27T13:15:30.722Z,13.00
2022-12-27T13:18:12.556Z,12.80
2022-12-27T13:20:57.691Z,13.03
2022-12-27T13:23:42.105Z,13.01
2022-12-27T13:26:20.315Z,12.54
2022-12-27T13:29:02.171Z,12.49
2022-12-27T13:31:46.364Z,12.55
2022-12-27T13:34:34.065Z,12.32
2022-12-27T13:37:17.499Z,12.32
2022-12-27T13:40:02.497Z,12.18
2022-12-27T13:43:09.783Z,11.98
2022-12-27T13:45:50.217Z,11.86
2022-12-27T13:48:44.467Z,11.82
2022-12-27T13:51:36.411Z,11.83
2022-12-27T13:54:24.600Z,11.80
2022-12-27T13:56:59.152Z,11.74
2022-12-27T13:59:46.056Z,11.68
2022-12-27T14:02:39.873Z,11.78
2022-12-27T14:05:32.204Z,11.74
2022-12-27T14:08:13.928Z,11.67
2022-12-27T14:10:47.172Z,11.54
2022-12-27T14:13:27.946Z,11.49
2022-12-27T14:16:24.328Z,11.47
2022-12-27T14:19:13.501Z,11.42
2022-12-27T14:22:00.375Z,11.41
2022-12-27T14:24:57.081Z,11.44
2022-12-27T14:27:59.562Z,11.24
2022-12-27T14:30:52.345Z,11.22
2022-12-27T14:33:52.578Z,11.20
2022-12-27T14:36:49.034Z,11.13
2022-12-27T14:40:04.551Z,11.00
2022-12-27T14:43:12.799Z,10.95
2022-12-27T14:46:18.863Z,10.71
2022-12-27T14:49:35.362Z,10.58
2022-12-27T14:52:43.007Z,10.55
2022-12-27T14:55:40.562Z,10.45
2022-12-27T14:58:30.536Z,10.27
2022-12-27T15:01:07.634Z,10.24
2022-12-27T15:04:03.276Z,10.24
2022-12-27T15:06:46.138Z,10.21
2022-12-27T15:09:27.076Z,10.16
2022-12-27T15:12:04.894Z,10.00
2022-12-27T15:14:56.419Z,9.92
2022-12-27T15:17:40.224Z,9.88
2022-12-27T15:20:45.991Z,9.88
2022-12-27T15:23:25.774Z,9.74
2022-12-27T15:26:04.391Z,9.71
2022-12-27T15:28:49.502Z,9.65
2022-12-27T15:31:31.051Z,9.62
2022-12-27T15:34:15.942Z,9.68
2022-12-27T15:36:47.339Z,9.65
2022-12-27T15:40:05.402Z,9.57
2022-12-27T15:42:48.937Z,9.42
2022-12-27T15:45:39.463Z,9.40
2022-12-27T15:48:54.910Z,9.34
2022-12-27T15:51:32.260Z,9.19
2022-12-27T15:54:32.615Z,9.24
2022-12-27T15:57:21.461Z,9.22
2022-12-27T15:59:52.991Z,9.18
2022-12-27T16:02:28.868Z,9.12
2022-12-27T16:05:02.477Z,9.27
2022-12-27T16:07:51.652Z,9.27
2022-12-27T16:10:50.106Z,9.40
2022-12-27T16:13:51.513Z,9.42
2022-12-27T16:16:54.697Z,9.47
2022-12-27T16:19:41.091Z,9.48
2022-12-27T16:22:26.366Z,9.57
2022-12-27T16:24:54.843Z,9.53
2022-12-27T16:27:31.472Z,9.63
2022-12-27T16:30:00.351Z,9.62
2022-12-27T16:32:30.016Z,9.63
2022-12-27T16:35:15.039Z,9.71
2022-12-27T16:37:52.542Z,9.65
2022-12-27T16:40:46.189Z,9.65
2022-12-27T16:43:46.624Z,9.76
2022-12-27T16:46:30.122Z,9.63
2022-12-27T16:49:24.977Z,9.63
2022-12-27T16:52:04.525Z,9.49
2022-12-27T16:54:47.381Z,9.48
2022-12-27T16:57:41.198Z,9.39
2022-12-27T17:00:40.333Z,9.30
2022-12-27T17:03:47.392Z,9.25
2022-12-27T17:06:57.809Z,9.28
2022-12-27T17:09:43.132Z,9.18
2022-12-27T17:12:24.628Z,9.19
2022-12-27T17:15:05.620Z,9.22
2022-12-27T17:17:34.095Z,9.14
2022-12-27T17:20:06.628Z,9.16
2022-12-27T17:22:35.813Z,9.10
2022-12-27T17:25:06.370Z,9.06
2022-12-27T17:27:56.740Z,9.10
2022-12-27T17:30:27.839Z,9.03
2022-12-27T17:33:25.502Z,8.99
2022-12-27T17:36:09.095Z,8.96
2022-12-27T17:38:48.560Z,8.93
2022-12-27T17:41:44.343Z,8.84
2022-12-27T17:44:41.876Z,8.79
2022-12-27T17:47:31.413Z,8.75
2022-12-27T17:50:01.411Z,8.74
2022-12-27T17:52:47.184Z,8.64
2022-12-27T17:55:38.985Z,8.64
2022-12-27T17:58:11.789Z,8.61
2022-12-27T18:00:46.738Z,8.61
2022-12-27T18:03:15.803Z,8.55
2022-12-27T18:05:47.578Z,8.49
2022-12-27T18:08:23.717Z,8.58
2022-12-27T18:10:52.047Z,8.61
2022-12-27T18:13:25.925Z,8.73
2022-12-27T18:15:54.672Z,8.75
2022-12-27T18:18:27.872Z,8.74
2022-12-27T18:20:58.275Z,8.73
2022-12-27T18:23:27.360Z,8.75
2022-12-27T18:25:58.454Z,8.71
2022-12-27T18:28:33.428Z,8.71
2022-12-27T18:31:06.429Z,8.67
2022-12-27T18:33:38.695Z,8.66
2022-12-27T18:36:10.159Z,8.51
2022-12-27T18:38:42.666Z,8.51
2022-12-27T18:41:13.549Z,8.54
2022-12-27T18:43:46.485Z,8.50
2022-12-27T18:46:18.051Z,8.43
2022-12-27T18:48:46.222Z,8.37
2022-12-27T18:51:14.615Z,8.27
2022-12-27T18:53:45.788Z,8.33
2022-12-27T18:56:29.306Z,8.31
2022-12-27T18:59:04.499Z,8.23
2022-12-27T19:01:41.738Z,8.19
2022-12-27T19:04:28.850Z,8.27
2022-12-27T19:07:06.470Z,8.24
2022-12-27T19:09:38.871Z,8.37
2022-12-27T19:12:10.724Z,8.45
2022-12-27T19:14:44.643Z,8.42
2022-12-27T19:17:19.887Z,8.38
2022-12-27T19:19:50.711Z,8.38
2022-12-27T19:22:42.427Z,8.42
2022-12-27T19:25:23.723Z,8.46
2022-12-27T19:28:03.194Z,8.35
2022-12-27T19:30:39.428Z,8.31
2022-12-27T19:33:13.359Z,8.23
2022-12-27T19:35:42.258Z,8.27
2022-12-27T19:38:19.624Z,8.05
2022-12-27T19:40:56.648Z,7.91
2022-12-27T19:43:29.717Z,7.90
2022-12-27T19:45:59.180Z,7.94
2022-12-27T19:48:27.194Z,7.90
2022-12-27T19:50:56.072Z,7.83
2022-12-27T19:53:29.511Z,7.80
2022-12-27T19:55:58.147Z,7.69
2022-12-27T19:58:28.424Z,7.66
2022-12-27T20:00:58.377Z,7.63
2022-12-27T20:03:26.872Z,7.51
2022-12-27T20:06:13.723Z,7.53
2022-12-27T20:08:45.980Z,7.48
2022-12-27T20:11:16.380Z,7.46
2022-12-27T20:13:44.670Z,7.52
2022-12-27T20:16:15.775Z,7.47
2022-12-27T20:18:44.752Z,7.50
2022-12-27T20:21:13.631Z,7.43
2022-12-27T20:23:42.142Z,7.41
2022-12-27T20:26:10.657Z,7.43
2022-12-27T20:28:39.875Z,7.43
2022-12-27T20:31:09.160Z,7.45
2022-12-27T20:33:38.804Z,7.48
2022-12-27T20:36:07.926Z,7.49
2022-12-27T20:38:36.668Z,7.50
2022-12-27T20:41:08.937Z,7.55
2022-12-27T20:43:37.419Z,7.52
2022-12-27T20:46:07.133Z,7.44
2022-12-27T20:48:39.706Z,7.34
2022-12-27T20:51:09.373Z,7.41
2022-12-27T20:53:37.591Z,7.39
2022-12-27T20:56:07.434Z,7.40
2022-12-27T20:58:35.930Z,7.32
2022-12-27T21:01:08.991Z,7.17
2022-12-27T21:03:37.938Z,7.27
2022-12-27T21:06:10.332Z,7.17
2022-12-27T21:08:45.403Z,7.24
2022-12-27T21:11:18.893Z,7.17
2022-12-27T21:13:48.167Z,7.15
2022-12-27T21:16:20.030Z,7.07
2022-12-27T21:18:48.419Z,7.04
2022-12-27T21:21:20.763Z,7.03
2022-12-27T21:23:49.900Z,6.92
2022-12-27T21:26:21.441Z,7.06
2022-12-27T21:28:49.820Z,6.97
2022-12-27T21:31:19.101Z,6.95
2022-12-27T21:33:47.939Z,6.96
2022-12-27T21:36:19.060Z,6.98
2022-12-27T21:38:48.306Z,6.93
2022-12-27T21:41:18.579Z,6.78
2022-12-27T21:43:47.483Z,6.91
2022-12-27T21:46:17.755Z,6.80
2022-12-27T21:48:46.159Z,6.79
2022-12-27T21:51:16.308Z,6.70
2022-12-27T21:53:46.227Z,6.69
2022-12-27T21:56:16.619Z,6.62
2022-12-27T21:58:46.010Z,6.66
2022-12-27T22:01:16.380Z,6.68
2022-12-27T22:03:46.873Z,6.66
2022-12-27T22:06:18.806Z,6.76
2022-12-27T22:08:49.816Z,6.76
2022-12-27T22:11:19.278Z,6.80
2022-12-27T22:13:47.601Z,6.89
2022-12-27T22:16:17.593Z,6.91
2022-12-27T22:18:46.436Z,6.97
2022-12-27T22:21:16.658Z,7.00
2022-12-27T22:23:48.307Z,7.04
2022-12-27T22:26:17.994Z,7.04
2022-12-27T22:28:46.398Z,7.03
2022-12-27T22:31:16.881Z,7.02
2022-12-27T22:33:45.064Z,6.96
2022-12-27T22:36:15.591Z,6.95
2022-12-27T22:38:47.689Z,7.00
2022-12-27T22:41:21.032Z,6.97
2022-12-27T22:43:54.126Z,6.98
2022-12-27T22:46:22.401Z,7.02
2022-12-27T22:48:51.947Z,6.85
2022-12-27T22:51:21.897Z,6.91
2022-12-27T22:53:50.383Z,6.92
2022-12-27T22:56:21.858Z,7.02
2022-12-27T22:58:50.092Z,6.99
2022-12-27T23:01:21.277Z,6.97
2022-12-27T23:03:49.726Z,7.01
2022-12-27T23:06:18.585Z,6.95
2022-12-27T23:08:47.422Z,7.08
2022-12-27T23:11:17.746Z,7.11
2022-12-27T23:13:47.832Z,7.04
2022-12-27T23:16:16.596Z,7.17
2022-12-27T23:18:44.903Z,7.10
2022-12-27T23:21:21.294Z,7.12
2022-12-27T23:23:53.039Z,7.13
2022-12-27T23:26:23.077Z,7.14
2022-12-27T23:28:53.607Z,7.12
2022-12-27T23:31:23.016Z,6.99
2022-12-27T23:33:51.516Z,6.99
2022-12-27T23:36:19.920Z,7.02
2022-12-27T23:38:48.017Z,7.04
2022-12-27T23:41:18.276Z,7.04
2022-12-27T23:43:55.388Z,7.09
2022-12-27T23:46:27.669Z,7.09
2022-12-27T23:48:56.680Z,7.09
2022-12-27T23:51:25.326Z,7.16
2022-12-27T23:53:53.350Z,7.15
2022-12-27T23:56:23.200Z,7.16
2022-12-27T23:58:53.691Z,7.07
